createdAt,value
2023-04-23T00:00:54.231Z,2.70
2023-04-23T00:03:27.278Z,2.47
2023-04-23T00:06:00.557Z,2.35
2023-04-23T00:08:30.458Z,2.17
2023-04-23T00:11:00.627Z,2.13
2023-04-23T00:13:30.867Z,2.42
2023-04-23T00:16:00.832Z,2.75
2023-04-23T00:18:30.455Z,2.53
2023-04-23T00:21:02.688Z,2.72
2023-04-23T00:23:32.337Z,2.90
2023-04-23T00:26:01.985Z,2.13
2023-04-23T00:28:31.681Z,2.10
2023-04-23T00:31:01.360Z,2.38
2023-04-23T00:33:31.116Z,2.50
2023-04-23T00:36:03.352Z,2.95
2023-04-23T00:38:33.232Z,2.42
2023-04-23T00:41:02.923Z,2.72
2023-04-23T00:43:32.525Z,2.20
2023-04-23T00:46:02.182Z,2.75
2023-04-23T00:48:32.208Z,2.20
2023-04-23T00:51:06.567Z,2.53
2023-04-23T00:53:36.458Z,2.50
2023-04-23T00:56:07.138Z,2.25
2023-04-23T00:58:37.261Z,2.30
2023-04-23T01:01:08.937Z,2.28
2023-04-23T01:03:40.886Z,2.80
2023-04-23T01:06:13.365Z,2.72
2023-04-23T01:08:43.680Z,2.80
2023-04-23T01:11:14.406Z,3.10
2023-04-23T01:13:44.950Z,2.95
2023-04-23T01:16:14.520Z,2.55
2023-04-23T01:18:44.793Z,3.42
2023-04-23T01:21:18.088Z,2.50
2023-04-23T01:23:50.481Z,3.25
2023-04-23T01:26:20.213Z,3.38
2023-04-23T01:28:50.171Z,2.97
2023-04-23T01:31:20.199Z,2.67
2023-04-23T01:33:49.904Z,2.85
2023-04-23T01:36:19.754Z,3.30
2023-04-23T01:38:51.939Z,2.97
2023-04-23T01:41:21.665Z,3.63
2023-04-23T01:43:51.380Z,3.45
2023-04-23T01:46:21.149Z,3.40
2023-04-23T01:48:50.768Z,3.20
2023-04-23T01:51:20.710Z,2.97
2023-04-23T01:53:53.051Z,2.85
2023-04-23T01:56:25.437Z,3.00
2023-04-23T01:58:55.052Z,3.22
2023-04-23T02:01:24.617Z,3.22
2023-04-23T02:03:54.638Z,3.08
2023-04-23T02:06:24.289Z,3.15
2023-04-23T02:08:56.550Z,3.10
2023-04-23T02:11:26.135Z,3.40
2023-04-23T02:13:55.695Z,3.03
2023-04-23T02:16:26.748Z,3.25
2023-04-23T02:18:56.335Z,2.83
2023-04-23T02:21:28.936Z,3.15
2023-04-23T02:24:01.265Z,3.47
2023-04-23T02:26:30.954Z,3.40
2023-04-23T02:29:00.518Z,3.05
2023-04-23T02:31:30.175Z,3.38
2023-04-23T02:34:00.419Z,2.78
2023-04-23T02:36:32.620Z,3.25
2023-04-23T02:39:05.338Z,3.40
2023-04-23T02:41:34.932Z,3.65
2023-04-23T02:44:04.572Z,3.70
2023-04-23T02:46:34.228Z,3.80
2023-04-23T02:49:03.937Z,3.42
2023-04-23T02:51:33.854Z,3.25
2023-04-23T02:54:06.193Z,3.38
2023-04-23T02:56:36.202Z,3.47
2023-04-23T02:59:06.633Z,3.17
2023-04-23T03:01:36.369Z,3.15
2023-04-23T03:04:07.653Z,3.42
2023-04-23T03:06:37.628Z,3.40
2023-04-23T03:09:09.790Z,3.20
2023-04-23T03:11:39.400Z,3.45
2023-04-23T03:14:09.363Z,3.30
2023-04-23T03:16:39.337Z,3.15
2023-04-23T03:19:09.339Z,3.85
2023-04-23T03:21:38.954Z,3.40
2023-04-23T03:24:12.134Z,3.30
2023-04-23T03:26:41.808Z,3.05
2023-04-23T03:29:11.681Z,3.50
2023-04-23T03:31:41.462Z,3.65
2023-04-23T03:34:13.075Z,3.33
2023-04-23T03:36:44.875Z,3.33
2023-04-23T03:39:17.922Z,2.92
2023-04-23T03:41:52.578Z,3.33
2023-04-23T03:44:26.397Z,3.42
2023-04-23T03:46:56.659Z,2.95
2023-04-23T03:49:26.379Z,3.10
2023-04-23T03:51:57.890Z,2.90
2023-04-23T03:54:30.545Z,2.78
2023-04-23T03:57:16.564Z,2.70
2023-04-23T03:59:56.725Z,3.05
2023-04-23T04:02:28.377Z,2.95
2023-04-23T04:04:58.287Z,2.88
2023-04-23T04:07:28.557Z,3.03
2023-04-23T04:10:03.292Z,2.70
2023-04-23T04:12:32.950Z,2.88
2023-04-23T04:15:03.424Z,2.97
2023-04-23T04:17:33.022Z,2.92
2023-04-23T04:20:02.566Z,2.85
2023-04-23T04:22:32.534Z,2.72
2023-04-23T04:25:05.407Z,2.78
2023-04-23T04:27:35.120Z,3.00
2023-04-23T04:30:05.838Z,3.08
2023-04-23T04:32:35.967Z,2.47
2023-04-23T04:35:05.668Z,2.60
2023-04-23T04:37:35.222Z,2.90
2023-04-23T04:40:08.483Z,3.25
2023-04-23T04:42:39.261Z,2.63
2023-04-23T04:45:10.697Z,2.65
2023-04-23T04:47:40.384Z,2.92
2023-04-23T04:50:10.563Z,2.72
2023-04-23T04:52:40.146Z,3.05
2023-04-23T04:55:12.864Z,2.70
2023-04-23T04:57:42.419Z,2.67
2023-04-23T05:00:28.425Z,2.75
2023-04-23T05:02:58.772Z,2.50
2023-04-23T05:05:29.477Z,2.83
2023-04-23T05:07:59.462Z,2.70
2023-04-23T05:10:31.843Z,2.63
2023-04-23T05:13:01.616Z,3.13
2023-04-23T05:15:31.532Z,2.85
2023-04-23T05:18:01.137Z,2.92
2023-04-23T05:20:30.808Z,3.08
2023-04-23T05:23:02.504Z,2.60
2023-04-23T05:25:35.830Z,2.72
2023-04-23T05:28:05.489Z,2.75
2023-04-23T05:30:35.068Z,2.90
2023-04-23T05:33:04.693Z,2.58
2023-04-23T05:35:34.356Z,2.97
2023-04-23T05:38:05.138Z,2.75
2023-04-23T05:40:37.651Z,2.97
2023-04-23T05:43:07.413Z,2.72
2023-04-23T05:45:36.990Z,2.38
2023-04-23T05:48:06.667Z,2.70
2023-04-23T05:50:36.365Z,2.63
2023-04-23T05:53:05.954Z,2.88
2023-04-23T05:55:38.133Z,2.70
2023-04-23T05:58:07.994Z,2.22
2023-04-23T06:00:37.670Z,2.42
2023-04-23T06:03:07.573Z,2.53
2023-04-23T06:05:38.374Z,2.13
2023-04-23T06:08:08.042Z,3.05
2023-04-23T06:10:40.192Z,2.85
2023-04-23T06:13:11.262Z,2.60
2023-04-23T06:15:41.211Z,2.17
2023-04-23T06:18:10.868Z,2.28
2023-04-23T06:20:40.463Z,2.30
2023-04-23T06:23:10.093Z,2.40
2023-04-23T06:25:42.347Z,2.42
2023-04-23T06:28:12.027Z,2.13
2023-04-23T06:30:57.289Z,1.90
2023-04-23T06:33:26.942Z,2.13
2023-04-23T06:35:56.490Z,1.95
2023-04-23T06:38:26.132Z,2.30
2023-04-23T06:40:59.051Z,1.75
2023-04-23T06:43:28.692Z,2.22
2023-04-23T06:46:21.194Z,2.20
2023-04-23T06:48:51.005Z,2.45
2023-04-23T06:51:20.546Z,1.95
2023-04-23T06:53:50.290Z,2.20
2023-04-23T06:56:22.886Z,2.35
2023-04-23T06:58:52.567Z,2.50
2023-04-23T07:01:24.056Z,2.78
2023-04-23T07:03:54.803Z,2.88
2023-04-23T07:06:24.417Z,1.75
2023-04-23T07:08:53.984Z,2.10
2023-04-23T07:11:26.993Z,2.15
2023-04-23T07:13:56.634Z,1.90
2023-04-23T07:16:26.364Z,1.80
2023-04-23T07:18:56.139Z,1.75
2023-04-23T07:21:27.708Z,2.60
2023-04-23T07:23:57.953Z,2.22
2023-04-23T07:26:30.206Z,2.05
2023-04-23T07:28:59.954Z,2.15
2023-04-23T07:31:29.578Z,2.22
2023-04-23T07:33:59.262Z,2.13
2023-04-23T07:36:28.891Z,2.00
2023-04-23T07:38:58.651Z,2.10
2023-04-23T07:41:30.956Z,2.20
2023-04-23T07:44:01.127Z,2.00
2023-04-23T07:46:30.733Z,2.05
2023-04-23T07:49:00.353Z,1.98
2023-04-23T07:51:29.950Z,2.00
2023-04-23T07:53:59.517Z,2.10
2023-04-23T07:56:32.671Z,1.90
2023-04-23T07:59:02.362Z,2.10
2023-04-23T08:01:31.973Z,2.42
2023-04-23T08:04:02.151Z,1.92
2023-04-23T08:06:35.359Z,2.40
2023-04-23T08:09:06.618Z,2.10
2023-04-23T08:11:38.916Z,2.25
2023-04-23T08:14:08.561Z,2.22
2023-04-23T08:16:39.100Z,1.92
2023-04-23T08:19:08.889Z,2.00
2023-04-23T08:21:38.979Z,1.95
2023-04-23T08:24:09.188Z,2.00
2023-04-23T08:26:41.402Z,1.92
2023-04-23T08:29:11.692Z,2.10
2023-04-23T08:31:41.508Z,2.25
2023-04-23T08:34:11.125Z,1.77
2023-04-23T08:36:40.862Z,1.83
2023-04-23T08:39:10.496Z,1.73
2023-04-23T08:41:43.636Z,2.08
2023-04-23T08:44:15.965Z,2.35
2023-04-23T08:46:46.810Z,2.13
2023-04-23T08:49:17.433Z,2.13
2023-04-23T08:51:53.033Z,1.88
2023-04-23T08:54:25.277Z,1.98
2023-04-23T08:56:58.621Z,1.70
2023-04-23T08:59:29.124Z,1.83
2023-04-23T09:02:01.207Z,2.08
2023-04-23T09:04:31.847Z,2.20
2023-04-23T09:07:01.564Z,2.10
2023-04-23T09:09:32.194Z,1.85
2023-04-23T09:12:04.587Z,1.90
2023-04-23T09:14:34.315Z,1.85
2023-04-23T09:17:05.036Z,1.90
2023-04-23T09:19:34.666Z,1.90
2023-04-23T09:22:04.329Z,1.88
2023-04-23T09:24:34.129Z,1.88
2023-04-23T09:27:07.265Z,1.33
2023-04-23T09:29:36.937Z,2.20
2023-04-23T09:32:09.114Z,1.80
2023-04-23T09:34:39.532Z,1.75
2023-04-23T09:37:11.231Z,1.40
2023-04-23T09:39:42.392Z,1.40
2023-04-23T09:42:14.932Z,1.73
2023-04-23T09:44:44.631Z,1.50
2023-04-23T09:47:15.957Z,1.98
2023-04-23T09:49:49.223Z,2.00
2023-04-23T09:52:19.432Z,1.67
2023-04-23T09:54:49.296Z,1.67
2023-04-23T09:57:21.501Z,1.00
2023-04-23T09:59:57.390Z,1.30
2023-04-23T10:02:41.796Z,1.52
2023-04-23T10:05:24.449Z,1.33
2023-04-23T10:07:58.011Z,1.17
2023-04-23T10:10:28.331Z,1.52
2023-04-23T10:13:00.873Z,1.20
2023-04-23T10:15:30.729Z,0.95
2023-04-23T10:18:00.861Z,0.93
2023-04-23T10:20:31.057Z,1.20
2023-04-23T10:23:02.088Z,1.27
2023-04-23T10:25:32.058Z,0.90
2023-04-23T10:28:06.047Z,1.00
2023-04-23T10:30:36.209Z,0.90
2023-04-23T10:33:15.732Z,0.95
2023-04-23T10:35:53.045Z,0.90
2023-04-23T10:38:24.124Z,1.08
2023-04-23T10:40:55.070Z,1.10
2023-04-23T10:43:27.866Z,0.85
2023-04-23T10:45:57.481Z,1.00
2023-04-23T10:48:27.109Z,0.90
2023-04-23T10:51:17.445Z,0.98
2023-04-23T10:53:50.162Z,1.25
2023-04-23T10:56:19.766Z,0.90
2023-04-23T10:58:54.771Z,0.80
2023-04-23T11:01:27.118Z,0.90
2023-04-23T11:03:56.835Z,1.20
2023-04-23T11:06:42.139Z,0.90
2023-04-23T11:09:26.575Z,0.85
2023-04-23T11:11:58.163Z,1.20
2023-04-23T11:14:40.428Z,1.00
2023-04-23T11:17:10.369Z,1.27
2023-04-23T11:19:40.289Z,0.98
2023-04-23T11:22:11.032Z,1.13
2023-04-23T11:24:42.775Z,1.02
2023-04-23T11:27:13.759Z,0.80
2023-04-23T11:29:47.063Z,0.98
2023-04-23T11:32:19.962Z,0.90
2023-04-23T11:34:50.824Z,0.70
2023-04-23T11:37:21.271Z,0.80
2023-04-23T11:39:51.665Z,0.98
2023-04-23T11:42:22.130Z,0.85
2023-04-23T11:44:56.232Z,0.82
2023-04-23T11:47:29.061Z,1.00
2023-04-23T11:49:58.722Z,0.85
2023-04-23T11:52:29.611Z,0.70
2023-04-23T11:54:59.634Z,0.80
2023-04-23T11:57:29.163Z,1.00
2023-04-23T12:00:01.362Z,1.27
2023-04-23T12:02:31.271Z,1.20
2023-04-23T12:05:01.328Z,1.73
2023-04-23T12:07:34.809Z,0.90
2023-04-23T12:10:04.951Z,0.90
2023-04-23T12:12:38.013Z,0.88
2023-04-23T12:15:10.878Z,1.00
2023-04-23T12:17:40.852Z,1.15
2023-04-23T12:20:13.231Z,1.05
2023-04-23T12:22:42.935Z,1.00
2023-04-23T12:25:12.584Z,1.10
2023-04-23T12:27:42.855Z,0.80
2023-04-23T12:30:15.668Z,1.27
2023-04-23T12:32:46.564Z,0.88
2023-04-23T12:35:16.310Z,1.67
2023-04-23T12:37:45.885Z,0.70
2023-04-23T12:40:15.688Z,0.70
2023-04-23T12:42:45.275Z,0.70
2023-04-23T12:45:17.500Z,0.70
2023-04-23T12:47:47.140Z,0.60
2023-04-23T12:50:16.796Z,0.60
2023-04-23T12:52:46.453Z,0.77
2023-04-23T12:55:16.225Z,0.68
2023-04-23T12:57:45.813Z,0.70
2023-04-23T13:00:18.639Z,0.73
2023-04-23T13:02:48.520Z,0.80
2023-04-23T13:05:18.196Z,0.70
2023-04-23T13:07:47.941Z,0.40
2023-04-23T13:10:17.794Z,0.82
2023-04-23T13:12:47.428Z,0.73
2023-04-23T13:15:20.361Z,0.60
2023-04-23T13:17:50.260Z,0.88
2023-04-23T13:20:19.873Z,0.80
2023-04-23T13:22:49.502Z,0.82
2023-04-23T13:25:19.220Z,0.80
2023-04-23T13:27:49.010Z,0.93
2023-04-23T13:30:21.144Z,0.98
2023-04-23T13:32:50.841Z,1.25
2023-04-23T13:35:20.700Z,0.80
2023-04-23T13:37:50.319Z,0.80
2023-04-23T13:40:20.051Z,1.17
2023-04-23T13:42:51.215Z,0.80
2023-04-23T13:45:23.482Z,0.55
2023-04-23T13:47:53.917Z,0.57
2023-04-23T13:50:23.712Z,0.90
2023-04-23T13:52:53.366Z,0.82
2023-04-23T13:55:23.018Z,0.60
2023-04-23T13:57:54.682Z,0.90
2023-04-23T14:00:27.004Z,0.85
2023-04-23T14:02:56.889Z,0.93
2023-04-23T14:05:26.607Z,0.93
2023-04-23T14:07:56.232Z,0.73
2023-04-23T14:10:26.007Z,1.00
2023-04-23T14:12:55.770Z,0.88
2023-04-23T14:15:28.125Z,0.68
2023-04-23T14:17:58.002Z,0.63
2023-04-23T14:20:27.603Z,0.65
2023-04-23T14:22:59.229Z,0.90
2023-04-23T14:25:32.562Z,0.75
2023-04-23T14:28:05.114Z,0.60
2023-04-23T14:30:37.534Z,0.65
2023-04-23T14:33:07.239Z,0.63
2023-04-23T14:38:11.467Z,0.80
2023-04-23T14:40:41.034Z,0.82
2023-04-23T14:43:15.386Z,0.65
2023-04-23T14:45:48.434Z,0.80
2023-04-23T14:48:18.073Z,0.70
2023-04-23T14:50:47.643Z,0.50
2023-04-23T14:53:17.347Z,0.57
2023-04-23T14:55:46.913Z,0.50
2023-04-23T14:58:16.573Z,0.68
2023-04-23T15:00:51.838Z,0.60
2023-04-23T15:03:21.749Z,0.60
2023-04-23T15:05:51.796Z,0.60
2023-04-23T15:08:21.420Z,0.57
2023-04-23T15:10:51.032Z,0.77
2023-04-23T15:13:33.715Z,0.50
2023-04-23T15:16:11.118Z,0.63
2023-04-23T15:18:41.125Z,0.60
2023-04-23T15:21:10.721Z,0.75
2023-04-23T15:23:41.547Z,0.68
2023-04-23T15:26:11.239Z,0.63
2023-04-23T15:28:40.861Z,0.68
2023-04-23T15:31:13.237Z,0.30
2023-04-23T15:33:43.123Z,0.57
2023-04-23T15:36:13.123Z,0.80
2023-04-23T15:38:42.707Z,0.60
2023-04-23T15:41:12.341Z,0.70
2023-04-23T15:43:41.930Z,0.90
2023-04-23T15:46:14.162Z,0.77
2023-04-23T15:48:44.197Z,0.60
2023-04-23T15:51:13.732Z,0.90
2023-04-23T15:53:43.384Z,0.70
2023-04-23T15:56:12.981Z,0.73
2023-04-23T15:58:42.514Z,0.77
2023-04-23T16:01:14.796Z,0.70
2023-04-23T16:03:57.752Z,0.90
2023-04-23T16:06:34.485Z,0.60
2023-04-23T16:09:07.353Z,0.70
2023-04-23T16:11:37.316Z,0.68
2023-04-23T16:14:07.379Z,0.60
2023-04-23T16:16:39.854Z,0.73
2023-04-23T16:19:09.502Z,0.70
2023-04-23T16:21:39.082Z,0.63
2023-04-23T16:24:09.150Z,0.90
2023-04-23T16:26:38.778Z,0.63
2023-04-23T16:29:21.336Z,0.65
2023-04-23T16:31:54.701Z,0.68
2023-04-23T16:34:24.463Z,0.40
2023-04-23T16:36:54.012Z,0.90
2023-04-23T16:39:23.604Z,0.85
2023-04-23T16:41:53.247Z,0.82
2023-04-23T16:44:22.892Z,0.75
2023-04-23T16:46:55.497Z,0.63
2023-04-23T16:49:25.176Z,0.77
2023-04-23T16:51:56.065Z,0.77
2023-04-23T16:54:25.823Z,0.95
2023-04-23T16:56:55.607Z,0.77
2023-04-23T16:59:25.441Z,0.88
2023-04-23T17:01:57.714Z,0.73
2023-04-23T17:04:27.611Z,0.70
2023-04-23T17:06:57.270Z,0.70
2023-04-23T17:09:27.106Z,0.60
2023-04-23T17:11:58.103Z,0.65
2023-04-23T17:14:27.876Z,0.85
2023-04-23T17:17:00.123Z,0.88
2023-04-23T17:19:29.719Z,0.75
2023-04-23T17:22:00.265Z,0.70
2023-04-23T17:24:29.974Z,0.90
2023-04-23T17:26:59.636Z,0.68
2023-04-23T17:29:29.426Z,0.73
2023-04-23T17:32:03.034Z,0.82
2023-04-23T17:34:32.888Z,0.93
2023-04-23T17:37:02.553Z,0.82
2023-04-23T17:39:32.269Z,1.27
2023-04-23T17:42:02.250Z,1.00
2023-04-23T17:44:32.211Z,1.02
2023-04-23T17:47:04.763Z,0.80
2023-04-23T17:49:34.461Z,1.00
2023-04-23T17:52:06.280Z,0.90
2023-04-23T17:54:35.942Z,1.10
2023-04-23T17:57:06.999Z,1.23
2023-04-23T17:59:36.738Z,0.95
2023-04-23T18:02:09.287Z,0.73
2023-04-23T18:04:39.026Z,0.70
2023-04-23T18:07:08.693Z,0.82
2023-04-23T18:09:38.299Z,0.55
2023-04-23T18:12:11.411Z,0.88
2023-04-23T18:14:41.105Z,1.00
2023-04-23T18:17:14.232Z,0.70
2023-04-23T18:19:44.082Z,0.68
2023-04-23T18:22:13.724Z,0.90
2023-04-23T18:24:43.408Z,0.95
2023-04-23T18:27:13.109Z,0.90
2023-04-23T18:29:43.242Z,0.88
2023-04-23T18:32:27.642Z,0.80
2023-04-23T18:35:04.314Z,1.08
2023-04-23T18:37:35.575Z,1.10
2023-04-23T18:40:05.792Z,1.38
2023-04-23T18:42:35.456Z,1.30
2023-04-23T18:45:05.592Z,0.98
2023-04-23T18:47:40.736Z,1.42
2023-04-23T18:50:12.154Z,1.20
2023-04-23T18:52:42.002Z,1.40
2023-04-23T18:55:12.149Z,1.45
2023-04-23T18:57:41.733Z,1.33
2023-04-23T19:00:12.210Z,1.65
2023-04-23T19:02:44.596Z,1.52
2023-04-23T19:05:14.488Z,1.20
2023-04-23T19:07:44.298Z,1.60
2023-04-23T19:10:14.559Z,1.30
2023-04-23T19:12:44.170Z,1.38
2023-04-23T19:15:15.770Z,1.95
2023-04-23T19:17:48.165Z,2.10
2023-04-23T19:20:18.858Z,1.70
2023-04-23T19:22:48.478Z,2.22
2023-04-23T19:25:18.226Z,1.90
2023-04-23T19:27:47.977Z,2.15
2023-04-23T19:30:17.812Z,1.05
2023-04-23T19:32:50.409Z,1.10
2023-04-23T19:35:20.456Z,1.20
2023-04-23T19:37:50.166Z,1.77
2023-04-23T19:40:19.846Z,2.17
2023-04-23T19:42:49.493Z,2.60
2023-04-23T19:45:19.145Z,1.45
2023-04-23T19:47:51.587Z,2.03
2023-04-23T19:50:21.693Z,1.98
2023-04-23T19:52:51.384Z,2.38
2023-04-23T19:55:26.044Z,1.90
2023-04-23T19:57:55.817Z,2.13
2023-04-23T20:00:25.762Z,1.75
2023-04-23T20:02:58.324Z,2.30
2023-04-23T20:05:29.002Z,1.83
2023-04-23T20:08:00.412Z,2.25
2023-04-23T20:10:30.808Z,1.98
2023-04-23T20:13:00.712Z,2.00
2023-04-23T20:15:30.248Z,2.20
2023-04-23T20:18:03.699Z,3.08
2023-04-23T20:20:34.289Z,2.13
2023-04-23T20:23:04.013Z,2.22
2023-04-23T20:25:33.679Z,2.10
2023-04-23T20:28:03.613Z,2.03
2023-04-23T20:30:33.185Z,2.15
2023-04-23T20:33:05.792Z,1.95
2023-04-23T20:35:35.745Z,2.20
2023-04-23T20:38:05.494Z,1.85
2023-04-23T20:40:35.655Z,1.83
2023-04-23T20:43:05.801Z,1.92
2023-04-23T20:45:36.372Z,1.48
2023-04-23T20:48:08.895Z,1.90
2023-04-23T20:50:38.604Z,2.35
2023-04-23T20:53:08.525Z,1.50
2023-04-23T20:55:38.193Z,1.73
2023-04-23T20:58:07.958Z,1.40
2023-04-23T21:00:38.013Z,1.73
2023-04-23T21:03:10.450Z,1.75
2023-04-23T21:05:44.446Z,1.80
2023-04-23T21:08:14.157Z,1.83
2023-04-23T21:10:43.925Z,1.50
2023-04-23T21:13:14.055Z,1.33
2023-04-23T21:15:43.802Z,1.90
2023-04-23T21:18:16.061Z,1.50
2023-04-23T21:20:46.067Z,1.95
2023-04-23T21:23:16.076Z,1.80
2023-04-23T21:25:45.822Z,1.63
2023-04-23T21:28:15.991Z,2.10
2023-04-23T21:30:47.946Z,1.52
2023-04-23T21:33:21.220Z,1.48
2023-04-23T21:35:51.283Z,1.48
2023-04-23T21:38:21.606Z,1.48
2023-04-23T21:40:51.332Z,1.50
2023-04-23T21:43:20.952Z,1.70
2023-04-23T21:45:50.636Z,2.50
2023-04-23T21:48:23.019Z,1.98
2023-04-23T21:50:53.912Z,2.78
2023-04-23T21:53:23.970Z,2.75
2023-04-23T21:55:54.151Z,4.65
2023-04-23T21:58:23.736Z,5.25
2023-04-23T22:00:53.512Z,2.85
2023-04-23T22:03:38.228Z,2.10
2023-04-23T22:06:09.908Z,1.85
2023-04-23T22:08:40.905Z,2.15
2023-04-23T22:11:11.004Z,1.70
2023-04-23T22:13:40.631Z,1.98
2023-04-23T22:16:24.607Z,2.20
2023-04-23T22:19:00.725Z,1.77
2023-04-23T22:21:30.476Z,1.98
2023-04-23T22:24:00.126Z,1.85
2023-04-23T22:26:29.981Z,1.95
2023-04-23T22:28:59.925Z,1.73
2023-04-23T22:31:29.564Z,2.13
2023-04-23T22:34:02.133Z,1.95
2023-04-23T22:36:32.121Z,1.85
2023-04-23T22:39:02.103Z,1.75
2023-04-23T22:41:33.625Z,2.08
2023-04-23T22:44:03.547Z,1.77
2023-04-23T22:46:33.587Z,1.52
2023-04-23T22:49:08.308Z,1.63
2023-04-23T22:51:38.983Z,1.90
2023-04-23T22:54:08.858Z,1.67
2023-04-23T22:56:38.458Z,1.70
2023-04-23T22:59:08.253Z,2.08
2023-04-23T23:01:37.879Z,1.70
2023-04-23T23:04:10.712Z,1.90
2023-04-23T23:06:41.669Z,1.67
2023-04-23T23:09:11.380Z,1.75
2023-04-23T23:11:41.267Z,1.63
2023-04-23T23:14:11.660Z,1.80
2023-04-23T23:16:41.264Z,1.52
2023-04-23T23:19:13.583Z,2.22
2023-04-23T23:21:43.252Z,1.95
2023-04-23T23:24:12.847Z,1.42
2023-04-23T23:26:42.535Z,1.92
2023-04-23T23:29:12.156Z,2.13
2023-04-23T23:31:42.033Z,1.73
2023-04-23T23:34:14.824Z,1.73
2023-04-23T23:36:45.294Z,1.45
2023-04-23T23:39:19.256Z,2.40
2023-04-23T23:41:49.273Z,2.20
2023-04-23T23:44:18.896Z,1.90
2023-04-23T23:46:48.489Z,1.85
2023-04-23T23:49:20.990Z,2.10
2023-04-23T23:51:50.997Z,2.15
2023-04-23T23:54:20.605Z,1.58
2023-04-23T23:56:50.171Z,2.03
2023-04-23T23:59:19.746Z,2.22
